createdAt,value
2022-08-22T04:31:03.239Z,284.00
2022-08-22T04:32:03.214Z,308.00
2022-08-22T04:33:03.209Z,324.00
2022-08-22T04:34:03.192Z,348.00
2022-08-22T04:35:03.169Z,372.00
2022-08-22T04:36:03.160Z,396.00
2022-08-22T04:37:03.149Z,420.00
2022-08-22T04:38:03.139Z,448.00
2022-08-22T04:39:03.129Z,472.00
2022-08-22T04:40:03.160Z,500.00
2022-08-22T04:41:04.677Z,532.00
2022-08-22T04:42:16.322Z,560.00
2022-08-22T04:43:04.138Z,592.00
2022-08-22T04:44:03.060Z,616.00
2022-08-22T04:45:03.040Z,644.00
2022-08-22T04:46:03.027Z,672.00
2022-08-22T04:47:03.009Z,700.00
2022-08-22T04:48:03.021Z,724.00
2022-08-22T04:49:02.997Z,752.00
2022-08-22T04:50:02.984Z,784.00
2022-08-22T04:51:02.959Z,808.00
2022-08-22T04:52:02.948Z,840.00
2022-08-22T04:53:02.964Z,880.00
2022-08-22T04:54:02.931Z,916.00
2022-08-22T04:55:02.918Z,956.00
2022-08-22T04:56:07.116Z,1004.00
2022-08-22T04:57:02.890Z,1052.00
2022-08-22T04:58:02.879Z,1100.00
2022-08-22T04:59:03.081Z,1140.00
2022-08-22T05:00:02.847Z,1144.00
2022-08-22T05:01:02.837Z,1132.00
2022-08-22T05:02:02.844Z,1140.00
2022-08-22T05:03:02.807Z,1172.00
2022-08-22T05:04:02.808Z,1200.00
2022-08-22T05:05:02.778Z,1228.00
2022-08-22T05:06:02.763Z,1268.00
2022-08-22T05:07:02.747Z,1308.00
2022-08-22T05:08:02.741Z,1356.00
2022-08-22T05:09:02.738Z,1420.00
2022-08-22T05:10:09.279Z,1436.00
2022-08-22T05:11:03.701Z,1560.00
2022-08-22T05:12:02.679Z,1564.00
2022-08-22T05:13:02.677Z,1864.00
2022-08-22T05:14:02.668Z,1800.00
2022-08-22T05:15:02.648Z,2004.00
2022-08-22T05:16:02.627Z,2100.00
2022-08-22T05:17:02.616Z,2156.00
2022-08-22T05:18:02.610Z,1980.00
2022-08-22T05:19:02.597Z,2152.00
2022-08-22T05:20:02.581Z,2128.00
2022-08-22T05:21:02.568Z,2172.00
2022-08-22T05:22:02.569Z,2156.00
2022-08-22T05:23:02.527Z,2312.00
2022-08-22T05:24:02.538Z,2236.00
2022-08-22T05:25:02.507Z,2300.00
2022-08-22T05:26:02.505Z,2448.00
2022-08-22T05:27:02.487Z,2864.00
2022-08-22T05:28:02.475Z,3036.00
2022-08-22T05:29:02.466Z,3068.00
2022-08-22T05:30:02.437Z,3276.00
2022-08-22T05:31:02.438Z,3368.00
2022-08-22T05:32:02.432Z,3376.00
2022-08-22T05:33:02.479Z,3440.00
2022-08-22T05:34:02.403Z,3468.00
2022-08-22T05:35:02.366Z,3300.00
2022-08-22T05:36:02.356Z,3328.00
2022-08-22T05:37:02.347Z,3356.00
2022-08-22T05:38:02.339Z,2844.00
2022-08-22T05:39:02.337Z,2940.00
2022-08-22T05:40:02.428Z,3256.00
2022-08-22T05:41:02.296Z,3548.00
2022-08-22T05:42:02.288Z,3620.00
2022-08-22T05:43:02.268Z,3380.00
2022-08-22T05:44:02.271Z,3224.00
2022-08-22T05:45:02.246Z,3296.00
2022-08-22T05:46:02.240Z,3364.00
2022-08-22T05:47:02.225Z,3504.00
2022-08-22T05:48:02.206Z,4028.00
2022-08-22T05:49:02.200Z,4048.00
2022-08-22T05:50:02.188Z,3376.00
2022-08-22T05:51:02.156Z,4164.00
2022-08-22T05:52:02.148Z,4176.00
2022-08-22T05:53:02.136Z,4200.00
2022-08-22T05:54:02.145Z,4264.00
2022-08-22T05:55:02.109Z,4332.00
2022-08-22T05:56:02.107Z,4404.00
2022-08-22T05:57:04.976Z,4472.00
2022-08-22T05:58:03.084Z,4544.00
2022-08-22T05:59:02.068Z,4592.00
2022-08-22T06:00:02.045Z,4644.00
2022-08-22T06:01:02.034Z,4688.00
2022-08-22T06:02:02.105Z,4716.00
2022-08-22T06:03:02.006Z,4728.00
2022-08-22T06:04:02.017Z,4448.00
2022-08-22T06:05:01.974Z,3944.00
2022-08-22T06:06:01.966Z,4820.00
2022-08-22T06:07:01.974Z,4884.00
2022-08-22T06:08:01.937Z,4948.00
2022-08-22T06:09:01.924Z,5032.00
2022-08-22T06:10:01.917Z,5156.00
2022-08-22T06:11:01.904Z,5240.00
2022-08-22T06:12:01.886Z,5340.00
2022-08-22T06:13:01.877Z,5428.00
2022-08-22T06:14:01.878Z,5552.00
2022-08-22T06:15:01.866Z,5664.00
2022-08-22T06:16:01.826Z,5744.00
2022-08-22T06:17:01.828Z,5864.00
2022-08-22T06:18:01.806Z,5980.00
2022-08-22T06:19:01.789Z,6084.00
2022-08-22T06:20:01.795Z,6156.00
2022-08-22T06:21:01.766Z,6336.00
2022-08-22T06:22:01.755Z,6472.00
2022-08-22T06:23:01.745Z,6604.00
2022-08-22T06:24:01.726Z,6736.00
2022-08-22T06:25:01.726Z,6808.00
2022-08-22T06:26:01.698Z,6868.00
2022-08-22T06:27:01.689Z,6952.00
2022-08-22T06:28:01.707Z,6984.00
2022-08-22T06:29:01.658Z,7028.00
2022-08-22T06:30:01.659Z,7080.00
2022-08-22T06:31:01.630Z,7132.00
2022-08-22T06:32:01.635Z,7296.00
2022-08-22T06:33:01.619Z,7372.00
2022-08-22T06:34:01.606Z,7484.00
2022-08-22T06:35:01.610Z,7580.00
2022-08-22T06:36:01.589Z,7640.00
2022-08-22T06:37:01.558Z,7704.00
2022-08-22T06:38:01.551Z,7724.00
2022-08-22T06:39:01.528Z,7740.00
2022-08-22T06:40:01.605Z,7776.00
2022-08-22T06:41:01.497Z,7848.00
2022-08-22T06:42:01.487Z,7936.00
2022-08-22T06:43:01.476Z,7656.00
2022-08-22T06:44:01.474Z,7732.00
2022-08-22T06:45:01.459Z,7800.00
2022-08-22T06:46:01.437Z,7948.00
2022-08-22T06:47:01.426Z,7968.00
2022-08-22T06:48:01.482Z,7612.00
2022-08-22T06:49:01.388Z,7312.00
2022-08-22T06:50:01.397Z,7532.00
2022-08-22T06:51:01.378Z,7780.00
2022-08-22T06:52:01.358Z,7416.00
2022-08-22T06:53:01.357Z,7188.00
2022-08-22T06:54:01.339Z,7200.00
2022-08-22T06:55:01.326Z,7432.00
2022-08-22T06:56:01.307Z,7480.00
2022-08-22T06:57:01.287Z,6616.00
2022-08-22T06:58:01.321Z,6236.00
2022-08-22T06:59:01.268Z,6224.00
2022-08-22T07:00:01.267Z,6284.00
2022-08-22T07:01:05.642Z,6456.00
2022-08-22T07:02:02.250Z,6608.00
2022-08-22T07:03:01.217Z,7116.00
2022-08-22T07:04:01.198Z,6872.00
2022-08-22T07:05:01.187Z,6776.00
2022-08-22T07:06:01.168Z,6636.00
2022-08-22T07:07:01.156Z,6580.00
2022-08-22T07:08:01.230Z,6324.00
2022-08-22T07:09:05.617Z,6188.00
2022-08-22T07:10:02.121Z,6104.00
2022-08-22T07:11:01.098Z,6024.00
2022-08-22T07:12:01.087Z,5912.00
2022-08-22T07:13:01.069Z,5708.00
2022-08-22T07:14:01.065Z,5668.00
2022-08-22T07:15:01.125Z,5496.00
2022-08-22T07:16:01.048Z,5448.00
2022-08-22T07:17:01.018Z,5528.00
2022-08-22T07:18:01.149Z,5572.00
2022-08-22T07:19:00.999Z,5640.00
2022-08-22T07:20:00.987Z,5784.00
2022-08-22T07:21:00.988Z,5860.00
2022-08-22T07:22:00.959Z,6092.00
2022-08-22T07:23:00.939Z,6204.00
2022-08-22T07:24:00.946Z,6176.00
2022-08-22T07:25:00.909Z,6300.00
2022-08-22T07:26:00.917Z,6284.00
2022-08-22T07:27:00.878Z,6508.00
2022-08-22T07:28:00.957Z,6572.00
2022-08-22T07:29:00.859Z,6656.00
2022-08-22T07:30:00.848Z,6716.00
2022-08-22T07:31:00.849Z,6812.00
2022-08-22T07:32:00.819Z,6956.00
2022-08-22T07:33:26.023Z,7160.00
2022-08-22T07:34:01.790Z,7380.00
2022-08-22T07:35:00.779Z,7624.00
2022-08-22T07:36:00.788Z,7824.00
2022-08-22T07:37:00.759Z,8016.00
2022-08-22T07:38:01.046Z,8216.00
2022-08-22T07:39:00.729Z,8404.00
2022-08-22T07:40:00.766Z,8592.00
2022-08-22T07:41:00.717Z,8772.00
2022-08-22T07:42:00.680Z,8924.00
2022-08-22T07:43:00.676Z,9080.00
2022-08-22T07:44:00.660Z,9236.00
2022-08-22T07:45:00.653Z,9392.00
2022-08-22T07:46:00.643Z,9548.00
2022-08-22T07:47:00.629Z,9716.00
2022-08-22T07:48:00.715Z,9884.00
2022-08-22T07:49:09.098Z,10036.00
2022-08-22T07:50:01.579Z,10180.00
2022-08-22T07:51:00.579Z,10304.00
2022-08-22T07:52:00.581Z,10392.00
2022-08-22T07:53:00.539Z,10424.00
2022-08-22T07:54:01.030Z,10432.00
2022-08-22T07:55:00.519Z,10424.00
2022-08-22T07:56:00.510Z,10408.00
2022-08-22T07:57:00.489Z,10304.00
2022-08-22T07:58:00.594Z,10372.00
2022-08-22T07:59:00.460Z,10336.00
2022-08-22T08:00:00.450Z,10372.00
2022-08-22T08:01:00.530Z,10440.00
2022-08-22T08:02:00.420Z,10616.00
2022-08-22T08:03:00.428Z,10564.00
2022-08-22T08:04:00.390Z,10356.00
2022-08-22T08:05:00.397Z,10360.00
2022-08-22T08:06:00.381Z,10448.00
2022-08-22T08:07:00.359Z,10524.00
2022-08-22T08:08:00.459Z,10592.00
2022-08-22T08:09:00.339Z,10712.00
2022-08-22T08:10:00.312Z,10772.00
2022-08-22T08:11:00.321Z,11104.00
2022-08-22T08:12:00.290Z,11148.00
2022-08-22T08:13:02.264Z,11456.00
2022-08-22T08:14:00.261Z,10884.00
2022-08-22T08:15:00.252Z,10900.00
2022-08-22T08:16:00.252Z,10896.00
2022-08-22T08:17:00.231Z,10928.00
2022-08-22T08:18:00.396Z,11048.00
2022-08-22T08:19:00.227Z,11184.00
2022-08-22T08:20:00.181Z,11412.00
2022-08-22T08:21:00.189Z,11736.00
2022-08-22T08:22:00.159Z,11880.00
2022-08-22T08:23:00.151Z,12660.00
2022-08-22T08:24:00.136Z,12588.00
2022-08-22T08:25:00.121Z,12732.00
2022-08-22T08:26:00.121Z,12804.00
2022-08-22T08:27:00.105Z,13048.00
2022-08-22T08:28:00.110Z,13248.00
2022-08-22T08:29:00.074Z,13616.00
2022-08-22T08:30:00.061Z,13888.00
2022-08-22T08:31:00.065Z,13580.00
2022-08-22T08:32:00.032Z,13104.00
2022-08-22T08:33:24.829Z,13152.00
2022-08-22T08:34:01.002Z,13296.00
2022-08-22T08:34:59.994Z,13524.00
2022-08-22T08:36:02.569Z,14080.00
2022-08-22T08:36:59.975Z,14048.00
2022-08-22T08:38:00.117Z,13948.00
2022-08-22T08:38:59.943Z,13756.00
2022-08-22T08:39:59.988Z,13812.00
2022-08-22T08:40:59.944Z,13796.00
2022-08-22T08:41:59.904Z,14064.00
2022-08-22T08:43:00.191Z,14560.00
2022-08-22T08:44:01.178Z,14752.00
2022-08-22T08:45:01.135Z,14656.00
2022-08-22T08:46:00.022Z,14656.00
2022-08-22T08:47:00.151Z,14752.00
2022-08-22T08:48:00.381Z,14912.00
2022-08-22T08:49:00.017Z,14784.00
2022-08-22T08:50:00.047Z,14688.00
2022-08-22T08:51:02.113Z,15168.00
2022-08-22T08:52:00.057Z,15008.00
2022-08-22T08:52:59.975Z,15072.00
2022-08-22T08:53:59.981Z,14880.00
2022-08-22T08:55:00.008Z,14752.00
2022-08-22T08:56:00.046Z,14848.00
2022-08-22T08:56:59.976Z,14720.00
2022-08-22T08:58:06.550Z,14240.00
2022-08-22T08:59:00.716Z,14028.00
2022-08-22T08:59:59.676Z,14208.00
2022-08-22T09:00:59.689Z,13984.00
2022-08-22T09:01:59.665Z,13856.00
2022-08-22T09:02:59.634Z,13760.00
2022-08-22T09:04:01.258Z,13920.00
2022-08-22T09:04:59.615Z,14080.00
2022-08-22T09:05:59.586Z,13952.00
2022-08-22T09:07:01.173Z,14624.00
2022-08-22T09:07:59.738Z,14400.00
2022-08-22T09:08:59.553Z,14400.00
2022-08-22T09:09:59.537Z,13860.00
2022-08-22T09:10:59.525Z,14152.00
2022-08-22T09:11:59.524Z,14276.00
2022-08-22T09:13:12.529Z,14404.00
2022-08-22T09:14:00.487Z,14560.00
2022-08-22T09:14:59.477Z,14760.00
2022-08-22T09:16:04.898Z,15072.00
2022-08-22T09:17:00.466Z,15296.00
2022-08-22T09:17:59.610Z,15520.00
2022-08-22T09:18:59.426Z,15648.00
2022-08-22T09:19:59.406Z,15808.00
2022-08-22T09:20:59.397Z,15872.00
2022-08-22T09:21:59.399Z,16128.00
2022-08-22T09:22:59.377Z,16352.00
2022-08-22T09:23:59.357Z,17152.00
2022-08-22T09:24:59.347Z,16256.00
2022-08-22T09:25:59.334Z,15840.00
2022-08-22T09:26:59.347Z,15296.00
2022-08-22T09:27:59.396Z,15040.00
2022-08-22T09:28:59.299Z,15104.00
2022-08-22T09:29:59.652Z,15136.00
2022-08-22T09:30:59.268Z,15232.00
2022-08-22T09:32:00.297Z,15392.00
2022-08-22T09:32:59.239Z,15520.00
2022-08-22T09:33:59.229Z,15616.00
2022-08-22T09:34:59.218Z,15776.00
2022-08-22T09:35:59.210Z,15872.00
2022-08-22T09:36:59.199Z,15936.00
2022-08-22T09:37:59.268Z,15968.00
2022-08-22T09:38:59.168Z,15936.00
2022-08-22T09:39:59.265Z,16000.00
2022-08-22T09:41:00.204Z,16032.00
2022-08-22T09:41:59.149Z,16224.00
2022-08-22T09:42:59.313Z,16416.00
2022-08-22T09:43:59.102Z,16672.00
2022-08-22T09:44:59.088Z,15744.00
2022-08-22T09:46:02.097Z,15168.00
2022-08-22T09:46:59.060Z,14468.00
2022-08-22T09:48:06.409Z,13824.00
2022-08-22T09:49:00.030Z,13260.00
2022-08-22T09:49:59.026Z,12816.00
2022-08-22T09:51:13.569Z,12504.00
2022-08-22T09:52:03.678Z,12296.00
2022-08-22T09:53:00.391Z,12180.00
2022-08-22T09:53:58.979Z,12212.00
2022-08-22T09:54:58.959Z,12056.00
2022-08-22T09:55:58.952Z,11992.00
2022-08-22T09:56:58.931Z,11828.00
2022-08-22T09:57:58.941Z,11524.00
2022-08-22T09:58:58.912Z,11100.00
2022-08-22T09:59:58.901Z,11116.00
2022-08-22T10:00:58.902Z,10788.00
2022-08-22T10:01:58.871Z,11256.00
2022-08-22T10:02:58.994Z,11872.00
2022-08-22T10:03:58.855Z,13260.00
2022-08-22T10:04:58.833Z,15456.00
2022-08-22T10:05:58.821Z,14580.00
2022-08-22T10:06:58.802Z,15968.00
2022-08-22T10:07:58.830Z,16768.00
2022-08-22T10:08:58.782Z,23200.00
2022-08-22T10:09:58.771Z,29376.00
2022-08-22T10:10:58.755Z,31456.00
2022-08-22T10:11:58.743Z,28896.00
2022-08-22T10:12:58.868Z,32832.00
2022-08-22T10:14:01.585Z,36320.00
2022-08-22T10:14:58.704Z,36096.00
2022-08-22T10:15:58.702Z,35488.00
2022-08-22T10:16:58.674Z,37760.00
2022-08-22T10:17:58.684Z,37984.00
2022-08-22T10:19:00.707Z,35680.00
2022-08-22T10:19:58.668Z,38880.00
2022-08-22T10:20:58.624Z,36608.00
2022-08-22T10:21:58.613Z,38048.00
2022-08-22T10:22:58.889Z,39648.00
2022-08-22T10:23:58.594Z,39040.00
2022-08-22T10:24:58.783Z,36832.00
2022-08-22T10:25:58.565Z,37824.00
2022-08-22T10:26:58.553Z,39808.00
2022-08-22T10:27:58.563Z,39200.00
2022-08-22T10:28:58.524Z,39232.00
2022-08-22T10:29:58.517Z,40384.00
2022-08-22T10:30:58.503Z,41504.00
2022-08-22T10:31:59.528Z,41472.00
2022-08-22T10:32:58.670Z,40064.00
2022-08-22T10:33:58.457Z,42016.00
2022-08-22T10:34:58.456Z,43008.00
2022-08-22T10:35:58.435Z,43104.00
2022-08-22T10:36:58.426Z,41920.00
2022-08-22T10:37:58.427Z,42784.00
2022-08-22T10:38:58.445Z,43200.00
2022-08-22T10:39:58.440Z,43392.00
2022-08-22T10:40:58.379Z,43808.00
2022-08-22T10:41:58.357Z,44256.00
2022-08-22T10:42:59.396Z,43936.00
2022-08-22T10:44:05.397Z,44256.00
2022-08-22T10:44:58.338Z,46368.00
2022-08-22T10:45:58.311Z,46752.00
2022-08-22T10:46:58.301Z,45632.00
2022-08-22T10:47:58.300Z,46816.00
2022-08-22T10:48:58.281Z,46112.00
2022-08-22T10:49:58.261Z,45184.00
2022-08-22T10:50:58.252Z,46432.00
2022-08-22T10:51:58.405Z,43136.00
2022-08-22T10:52:58.399Z,47040.00
2022-08-22T10:53:58.221Z,48160.00
2022-08-22T10:54:58.212Z,49536.00
2022-08-22T10:55:58.191Z,50144.00
2022-08-22T10:56:59.295Z,49952.00
2022-08-22T10:57:58.182Z,48416.00
2022-08-22T10:58:58.177Z,45888.00
2022-08-22T10:59:58.142Z,47072.00
2022-08-22T11:00:58.398Z,47360.00
2022-08-22T11:01:58.181Z,46688.00
2022-08-22T11:02:58.534Z,47296.00
2022-08-22T11:03:58.091Z,50080.00
2022-08-22T11:04:58.097Z,51456.00
2022-08-22T11:05:58.063Z,48992.00
2022-08-22T11:06:58.067Z,48032.00
2022-08-22T11:07:58.064Z,48352.00
2022-08-22T11:08:58.034Z,49152.00
2022-08-22T11:09:58.028Z,50400.00
2022-08-22T11:10:58.037Z,52064.00
2022-08-22T11:11:58.023Z,47616.00
2022-08-22T11:12:58.209Z,37376.00
2022-08-22T11:13:57.965Z,25984.00
2022-08-22T11:14:57.963Z,17472.00
2022-08-22T11:15:57.946Z,15072.00
2022-08-22T11:16:57.944Z,14692.00
2022-08-22T11:17:57.927Z,14532.00
2022-08-22T11:19:02.841Z,14544.00
2022-08-22T11:19:58.898Z,14488.00
2022-08-22T11:20:57.909Z,14320.00
2022-08-22T11:21:57.876Z,14116.00
2022-08-22T11:22:57.982Z,14212.00
2022-08-22T11:23:57.867Z,17920.00
2022-08-22T11:25:01.178Z,26976.00
2022-08-22T11:25:58.828Z,38144.00
2022-08-22T11:26:58.817Z,48800.00
2022-08-22T11:27:57.798Z,53664.00
2022-08-22T11:28:57.811Z,53568.00
2022-08-22T11:29:58.780Z,54624.00
2022-08-22T11:30:57.768Z,49696.00
2022-08-22T11:32:01.440Z,38784.00
2022-08-22T11:32:59.545Z,27744.00
2022-08-22T11:33:57.738Z,18976.00
2022-08-22T11:34:57.728Z,16096.00
2022-08-22T11:35:57.710Z,16160.00
2022-08-22T11:36:58.699Z,17760.00
2022-08-22T11:37:57.687Z,17888.00
2022-08-22T11:38:57.701Z,29088.00
2022-08-22T11:39:57.695Z,42080.00
2022-08-22T11:40:57.670Z,52992.00
2022-08-22T11:41:57.779Z,59808.00
2022-08-22T11:42:57.630Z,57696.00
2022-08-22T11:43:57.632Z,57280.00
2022-08-22T11:44:57.614Z,56800.00
2022-08-22T11:45:57.598Z,59008.00
2022-08-22T11:46:58.108Z,59840.00
2022-08-22T11:47:57.590Z,61280.00
2022-08-22T11:48:57.581Z,59744.00
2022-08-22T11:49:57.569Z,57856.00
2022-08-22T11:50:57.572Z,57056.00
2022-08-22T11:51:57.533Z,61824.00
2022-08-22T11:52:57.523Z,63424.00
2022-08-22T11:53:57.543Z,64128.00
2022-08-22T11:54:57.502Z,64832.00
2022-08-22T11:55:57.483Z,64288.00
2022-08-22T11:56:57.473Z,65376.00
2022-08-22T11:57:57.459Z,66528.00
2022-08-22T11:58:57.462Z,66976.00
2022-08-22T11:59:57.434Z,68928.00
2022-08-22T12:00:57.424Z,69440.00
2022-08-22T12:01:57.462Z,68992.00
2022-08-22T12:02:57.404Z,62400.00
2022-08-22T12:03:58.576Z,69216.00
2022-08-22T12:04:57.391Z,54240.00
2022-08-22T12:05:57.354Z,64032.00
2022-08-22T12:06:57.389Z,70656.00
2022-08-22T12:07:57.344Z,51200.00
2022-08-22T12:08:57.344Z,60672.00
2022-08-22T12:09:57.325Z,71616.00
2022-08-22T12:10:57.325Z,71168.00
2022-08-22T12:11:57.296Z,71712.00
2022-08-22T12:12:57.285Z,69216.00
2022-08-22T12:14:06.149Z,68128.00
2022-08-22T12:14:58.265Z,46592.00
2022-08-22T12:15:57.246Z,37152.00
2022-08-22T12:16:57.246Z,43712.00
2022-08-22T12:18:01.513Z,30208.00
2022-08-22T12:18:57.228Z,27520.00
2022-08-22T12:20:14.993Z,30368.00
2022-08-22T12:20:58.186Z,26208.00
2022-08-22T12:21:57.186Z,26560.00
2022-08-22T12:22:57.172Z,31936.00
2022-08-22T12:23:57.173Z,46848.00
2022-08-22T12:25:02.190Z,60256.00
2022-08-22T12:25:58.130Z,63840.00
2022-08-22T12:26:57.147Z,52256.00
2022-08-22T12:27:57.105Z,50080.00
2022-08-22T12:28:57.119Z,70624.00
2022-08-22T12:29:57.076Z,73632.00
2022-08-22T12:30:57.076Z,74272.00
2022-08-22T12:31:57.048Z,74624.00
2022-08-22T12:32:57.107Z,61120.00
2022-08-22T12:33:57.038Z,43872.00
2022-08-22T12:34:57.018Z,25728.00
2022-08-22T12:35:57.000Z,23200.00
2022-08-22T12:36:57.000Z,25184.00
2022-08-22T12:37:56.980Z,26208.00
2022-08-22T12:38:56.980Z,26208.00
2022-08-22T12:39:56.986Z,31040.00
2022-08-22T12:40:56.950Z,39808.00
2022-08-22T12:41:56.930Z,37344.00
2022-08-22T12:42:56.920Z,52128.00
2022-08-22T12:43:56.923Z,49984.00
2022-08-22T12:44:56.900Z,55104.00
2022-08-22T12:45:56.881Z,59264.00
2022-08-22T12:46:56.880Z,57792.00
2022-08-22T12:47:56.913Z,39392.00
2022-08-22T12:48:56.882Z,30912.00
2022-08-22T12:49:56.839Z,28128.00
2022-08-22T12:50:56.841Z,28096.00
2022-08-22T12:51:59.833Z,27680.00
2022-08-22T12:52:57.801Z,27840.00
2022-08-22T12:53:56.803Z,40480.00
2022-08-22T12:54:56.786Z,55136.00
2022-08-22T12:55:56.800Z,62816.00
2022-08-22T12:56:56.762Z,29760.00
2022-08-22T12:57:56.926Z,45632.00
2022-08-22T12:58:56.742Z,39552.00
2022-08-22T12:59:58.221Z,31008.00
2022-08-22T13:00:56.797Z,35968.00
2022-08-22T13:01:56.703Z,38880.00
2022-08-22T13:02:56.727Z,26912.00
2022-08-22T13:03:56.683Z,22624.00
2022-08-22T13:04:56.674Z,25376.00
2022-08-22T13:05:59.953Z,26016.00
2022-08-22T13:06:56.644Z,32576.00
2022-08-22T13:07:57.718Z,21344.00
2022-08-22T13:08:56.635Z,20704.00
2022-08-22T13:09:56.605Z,21760.00
2022-08-22T13:10:56.601Z,19744.00
2022-08-22T13:11:58.097Z,18080.00
2022-08-22T13:12:56.574Z,16832.00
2022-08-22T13:13:57.152Z,15904.00
2022-08-22T13:14:56.547Z,14316.00
2022-08-22T13:15:56.528Z,13148.00
2022-08-22T13:16:56.516Z,12568.00
2022-08-22T13:18:08.675Z,11968.00
2022-08-22T13:18:57.514Z,11580.00
2022-08-22T13:19:56.477Z,11304.00
2022-08-22T13:20:56.471Z,11156.00
2022-08-22T13:21:56.455Z,11136.00
2022-08-22T13:22:56.448Z,11044.00
2022-08-22T13:23:56.436Z,10920.00
2022-08-22T13:24:56.427Z,10696.00
2022-08-22T13:25:56.427Z,10496.00
2022-08-22T13:26:56.407Z,10348.00
2022-08-22T13:27:56.387Z,10208.00
2022-08-22T13:29:09.245Z,10072.00
2022-08-22T13:29:57.369Z,9940.00
2022-08-22T13:30:56.348Z,9848.00
2022-08-22T13:31:56.346Z,9756.00
2022-08-22T13:32:56.319Z,9656.00
2022-08-22T13:33:56.308Z,9520.00
2022-08-22T13:34:56.309Z,9408.00
2022-08-22T13:35:56.288Z,9420.00
2022-08-22T13:36:56.269Z,9640.00
2022-08-22T13:37:56.318Z,10068.00
2022-08-22T13:38:56.251Z,10308.00
2022-08-22T13:39:56.268Z,10924.00
2022-08-22T13:40:56.219Z,11180.00
2022-08-22T13:41:56.202Z,11708.00
2022-08-22T13:42:56.208Z,12032.00
2022-08-22T13:43:57.130Z,12116.00
2022-08-22T13:44:56.190Z,12164.00
2022-08-22T13:45:56.160Z,12140.00
2022-08-22T13:47:13.965Z,12192.00
2022-08-22T13:47:57.143Z,12260.00
2022-08-22T13:49:00.739Z,12312.00
2022-08-22T13:49:57.119Z,12436.00
2022-08-22T13:50:56.103Z,12548.00
2022-08-22T13:51:56.071Z,12772.00
2022-08-22T13:52:56.072Z,13268.00
2022-08-22T13:54:02.063Z,13504.00
2022-08-22T13:54:57.051Z,13808.00
2022-08-22T13:55:56.022Z,14376.00
2022-08-22T13:56:56.011Z,15456.00
2022-08-22T13:57:56.062Z,14520.00
2022-08-22T13:58:55.991Z,14344.00
2022-08-22T14:00:04.806Z,14612.00
2022-08-22T14:00:57.406Z,15072.00
2022-08-22T14:01:56.018Z,15584.00
2022-08-22T14:02:55.962Z,16256.00
2022-08-22T14:03:55.933Z,16864.00
2022-08-22T14:04:55.914Z,17088.00
2022-08-22T14:05:55.893Z,17600.00
2022-08-22T14:06:56.884Z,18752.00
2022-08-22T14:07:55.871Z,22240.00
2022-08-22T14:08:55.883Z,22272.00
2022-08-22T14:09:55.852Z,21472.00
2022-08-22T14:11:02.163Z,21664.00
2022-08-22T14:11:56.823Z,22656.00
2022-08-22T14:12:55.823Z,26976.00
2022-08-22T14:13:55.824Z,31808.00
2022-08-22T14:14:55.793Z,32704.00
2022-08-22T14:15:55.774Z,33056.00
2022-08-22T14:16:55.765Z,33728.00
2022-08-22T14:17:55.782Z,34848.00
2022-08-22T14:18:55.745Z,35232.00
2022-08-22T14:19:59.428Z,27040.00
2022-08-22T14:20:56.725Z,28576.00
2022-08-22T14:21:55.705Z,24096.00
2022-08-22T14:22:58.969Z,24192.00
2022-08-22T14:23:56.695Z,22304.00
2022-08-22T14:24:56.011Z,22752.00
2022-08-22T14:25:55.646Z,24960.00
2022-08-22T14:26:57.847Z,22048.00
2022-08-22T14:27:55.682Z,21952.00
2022-08-22T14:28:55.619Z,23680.00
2022-08-22T14:29:55.606Z,35488.00
2022-08-22T14:30:59.427Z,29408.00
2022-08-22T14:31:56.576Z,26048.00
2022-08-22T14:32:55.567Z,24832.00
2022-08-22T14:33:55.559Z,25696.00
2022-08-22T14:34:55.557Z,23648.00
2022-08-22T14:35:55.528Z,21600.00
2022-08-22T14:36:55.518Z,21216.00
2022-08-22T14:37:55.512Z,21088.00
2022-08-22T14:38:55.498Z,19168.00
2022-08-22T14:39:55.557Z,17888.00
2022-08-22T14:40:55.478Z,17312.00
2022-08-22T14:41:57.969Z,16832.00
2022-08-22T14:42:55.439Z,16544.00
2022-08-22T14:43:55.419Z,16544.00
2022-08-22T14:44:55.429Z,16512.00
2022-08-22T14:45:55.399Z,16544.00
2022-08-22T14:46:55.409Z,16576.00
2022-08-22T14:48:30.097Z,16800.00
2022-08-22T14:48:56.371Z,16960.00
2022-08-22T14:49:55.370Z,16960.00
2022-08-22T14:50:55.345Z,16992.00
2022-08-22T14:51:55.320Z,17120.00
2022-08-22T14:52:55.319Z,17312.00
2022-08-22T14:53:55.300Z,17280.00
2022-08-22T14:54:55.323Z,18240.00
2022-08-22T14:55:55.280Z,20992.00
2022-08-22T14:56:55.271Z,20000.00
2022-08-22T14:57:55.318Z,18816.00
2022-08-22T14:58:55.259Z,17664.00
2022-08-22T14:59:55.241Z,17440.00
2022-08-22T15:00:55.221Z,17888.00
2022-08-22T15:01:55.225Z,19072.00
2022-08-22T15:02:55.191Z,23520.00
2022-08-22T15:03:55.171Z,23200.00
2022-08-22T15:04:55.171Z,36992.00
2022-08-22T15:05:55.152Z,44384.00
2022-08-22T15:06:55.140Z,59392.00
2022-08-22T15:07:55.187Z,56704.00
2022-08-22T15:08:55.112Z,61152.00
2022-08-22T15:09:55.102Z,50400.00
2022-08-22T15:10:55.091Z,53888.00
2022-08-22T15:11:55.071Z,53248.00
2022-08-22T15:12:55.083Z,46944.00
2022-08-22T15:13:55.062Z,60544.00
2022-08-22T15:14:55.053Z,53696.00
2022-08-22T15:15:59.782Z,27744.00
2022-08-22T15:16:56.022Z,20512.00
2022-08-22T15:17:55.164Z,19136.00
2022-08-22T15:18:54.993Z,18240.00
2022-08-22T15:19:54.992Z,16928.00
2022-08-22T15:20:54.964Z,15968.00
2022-08-22T15:21:54.944Z,14944.00
2022-08-22T15:22:54.950Z,14084.00
2022-08-22T15:23:54.942Z,13556.00
2022-08-22T15:24:56.415Z,13108.00
2022-08-22T15:25:54.904Z,12640.00
2022-08-22T15:26:55.486Z,12324.00
2022-08-22T15:27:54.886Z,12456.00
2022-08-22T15:28:54.875Z,14752.00
2022-08-22T15:29:54.905Z,15072.00
2022-08-22T15:30:54.845Z,16224.00
2022-08-22T15:31:54.826Z,14212.00
2022-08-22T15:32:54.926Z,13736.00
2022-08-22T15:33:54.827Z,14024.00
2022-08-22T15:34:54.825Z,14816.00
2022-08-22T15:35:54.786Z,14848.00
2022-08-22T15:36:54.797Z,12964.00
2022-08-22T15:37:54.766Z,11888.00
2022-08-22T15:38:54.747Z,11812.00
2022-08-22T15:39:54.782Z,12360.00
2022-08-22T15:40:54.717Z,14976.00
2022-08-22T15:41:54.707Z,15136.00
2022-08-22T15:42:54.698Z,15264.00
2022-08-22T15:43:54.677Z,23776.00
2022-08-22T15:44:54.679Z,15840.00
2022-08-22T15:45:54.647Z,14120.00
2022-08-22T15:46:54.668Z,17152.00
2022-08-22T15:47:54.627Z,18144.00
2022-08-22T15:48:54.617Z,20224.00
2022-08-22T15:49:54.598Z,18240.00
2022-08-22T15:50:54.607Z,18400.00
2022-08-22T15:51:54.578Z,18912.00
2022-08-22T15:52:56.542Z,19072.00
2022-08-22T15:53:55.558Z,18208.00
2022-08-22T15:54:54.561Z,16576.00
2022-08-22T15:55:54.539Z,16224.00
2022-08-22T15:56:54.532Z,20256.00
2022-08-22T15:57:54.510Z,19488.00
2022-08-22T15:58:54.532Z,35520.00
2022-08-22T15:59:54.720Z,48768.00
2022-08-22T16:00:54.481Z,42368.00
2022-08-22T16:01:54.525Z,23680.00
2022-08-22T16:02:54.509Z,40256.00
2022-08-22T16:03:54.430Z,44992.00
2022-08-22T16:04:54.438Z,54112.00
2022-08-22T16:05:55.657Z,36256.00
2022-08-22T16:06:54.392Z,18656.00
2022-08-22T16:07:54.382Z,29984.00
2022-08-22T16:08:54.375Z,55296.00
2022-08-22T16:09:54.355Z,54560.00
2022-08-22T16:10:54.372Z,53568.00
2022-08-22T16:11:54.342Z,52640.00
2022-08-22T16:12:54.383Z,52480.00
2022-08-22T16:13:54.310Z,52064.00
2022-08-22T16:14:54.312Z,52704.00
2022-08-22T16:15:56.716Z,44384.00
2022-08-22T16:16:54.281Z,50624.00
2022-08-22T16:17:54.344Z,52544.00
2022-08-22T16:18:54.257Z,44096.00
2022-08-22T16:19:54.242Z,42912.00
2022-08-22T16:20:54.245Z,16224.00
2022-08-22T16:21:54.203Z,13532.00